sensor_id;sensor_type;location;lat;lon;timestamp;P1;durP1;ratioP1;P2;durP2;ratioP2
6467;SDS011;3267;48.794;9.928;2023-02-28T05:02:05;4.27;;;3.20;;
6467;SDS011;3267;48.794;9.928;2023-02-28T05:04:34;4.50;;;3.67;;
6467;SDS011;3267;48.794;9.928;2023-02-28T05:07:01;5.07;;;2.93;;
6467;SDS011;3267;48.794;9.928;2023-02-28T05:09:28;3.83;;;3.50;;
6467;SDS011;3267;48.794;9.928;2023-02-28T05:11:54;3.70;;;3.40;;
6467;SDS011;3267;48.794;9.928;2023-02-28T05:14:20;4.03;;;3.13;;
6467;SDS011;3267;48.794;9.928;2023-02-28T05:16:46;5.03;;;3.70;;
6467;SDS011;3267;48.794;9.928;2023-02-28T05:19:12;4.00;;;3.27;;
6467;SDS011;3267;48.794;9.928;2023-02-28T05:21:39;5.13;;;3.33;;
6467;SDS011;3267;48.794;9.928;2023-02-28T05:24:09;4.20;;;3.40;;
6467;SDS011;3267;48.794;9.928;2023-02-28T05:26:36;4.37;;;3.23;;
6467;SDS011;3267;48.794;9.928;2023-02-28T05:29:03;4.37;;;3.30;;
6467;SDS011;3267;48.794;9.928;2023-02-28T05:31:30;4.90;;;3.67;;
6467;SDS011;3267;48.794;9.928;2023-02-28T05:33:56;4.60;;;3.97;;
6467;SDS011;3267;48.794;9.928;2023-02-28T05:36:22;3.90;;;3.60;;
6467;SDS011;3267;48.794;9.928;2023-02-28T05:38:49;5.53;;;3.83;;
6467;SDS011;3267;48.794;9.928;2023-02-28T05:41:15;5.47;;;4.23;;
6467;SDS011;3267;48.794;9.928;2023-02-28T05:43:42;6.07;;;4.23;;
6467;SDS011;3267;48.794;9.928;2023-02-28T05:46:09;10.83;;;4.03;;
6467;SDS011;3267;48.794;9.928;2023-02-28T05:48:36;4.57;;;3.80;;
6467;SDS011;3267;48.794;9.928;2023-02-28T05:51:03;8.20;;;4.20;;
6467;SDS011;3267;48.794;9.928;2023-02-28T05:53:29;3.43;;;3.13;;
6467;SDS011;3267;48.794;9.928;2023-02-28T05:55:55;4.37;;;3.23;;
6467;SDS011;3267;48.794;9.928;2023-02-28T05:58:21;5.63;;;3.87;;
6467;SDS011;3267;48.794;9.928;2023-02-28T06:00:48;5.70;;;4.10;;
6467;SDS011;3267;48.794;9.928;2023-02-28T06:03:14;4.80;;;4.10;;
6467;SDS011;3267;48.794;9.928;2023-02-28T06:05:40;6.20;;;3.80;;
6467;SDS011;3267;48.794;9.928;2023-02-28T06:08:06;10.10;;;4.17;;
6467;SDS011;3267;48.794;9.928;2023-02-28T06:10:35;4.50;;;3.83;;
6467;SDS011;3267;48.794;9.928;2023-02-28T06:13:02;6.40;;;4.33;;
6467;SDS011;3267;48.794;9.928;2023-02-28T06:15:28;4.53;;;4.13;;
6467;SDS011;3267;48.794;9.928;2023-02-28T06:17:54;6.37;;;4.33;;
6467;SDS011;3267;48.794;9.928;2023-02-28T06:20:24;7.10;;;4.97;;
6467;SDS011;3267;48.794;9.928;2023-02-28T06:22:54;11.13;;;8.57;;
6467;SDS011;3267;48.794;9.928;2023-02-28T06:25:21;7.17;;;5.43;;
6467;SDS011;3267;48.794;9.928;2023-02-28T06:27:47;9.83;;;7.70;;
6467;SDS011;3267;48.794;9.928;2023-02-28T06:30:14;5.33;;;4.57;;
6467;SDS011;3267;48.794;9.928;2023-02-28T06:32:40;5.70;;;4.27;;
6467;SDS011;3267;48.794;9.928;2023-02-28T06:35:06;5.10;;;3.93;;
6467;SDS011;3267;48.794;9.928;2023-02-28T06:37:32;7.63;;;3.93;;
6467;SDS011;3267;48.794;9.928;2023-02-28T06:39:58;6.07;;;4.20;;
6467;SDS011;3267;48.794;9.928;2023-02-28T06:42:24;5.10;;;4.60;;
6467;SDS011;3267;48.794;9.928;2023-02-28T06:44:57;5.30;;;4.70;;
6467;SDS011;3267;48.794;9.928;2023-02-28T06:47:23;5.57;;;4.60;;
6467;SDS011;3267;48.794;9.928;2023-02-28T06:49:49;6.30;;;4.87;;
6467;SDS011;3267;48.794;9.928;2023-02-28T06:52:15;7.63;;;5.00;;
6467;SDS011;3267;48.794;9.928;2023-02-28T06:54:41;4.63;;;3.60;;
6467;SDS011;3267;48.794;9.928;2023-02-28T06:57:11;5.23;;;4.30;;
6467;SDS011;3267;48.794;9.928;2023-02-28T06:59:37;6.80;;;4.40;;
6467;SDS011;3267;48.794;9.928;2023-02-28T07:02:03;5.03;;;4.53;;
6467;SDS011;3267;48.794;9.928;2023-02-28T07:04:32;5.33;;;4.03;;
6467;SDS011;3267;48.794;9.928;2023-02-28T07:07:01;6.70;;;4.73;;
6467;SDS011;3267;48.794;9.928;2023-02-28T07:09:28;5.20;;;4.50;;
6467;SDS011;3267;48.794;9.928;2023-02-28T07:11:55;6.03;;;4.90;;
6467;SDS011;3267;48.794;9.928;2023-02-28T07:14:21;10.63;;;6.20;;
6467;SDS011;3267;48.794;9.928;2023-02-28T07:16:47;7.03;;;4.97;;
6467;SDS011;3267;48.794;9.928;2023-02-28T07:19:13;8.37;;;5.40;;
6467;SDS011;3267;48.794;9.928;2023-02-28T07:21:39;6.87;;;4.90;;
6467;SDS011;3267;48.794;9.928;2023-02-28T07:24:05;5.57;;;4.30;;
6467;SDS011;3267;48.794;9.928;2023-02-28T07:26:31;5.50;;;4.57;;
6467;SDS011;3267;48.794;9.928;2023-02-28T07:28:59;6.60;;;5.00;;
6467;SDS011;3267;48.794;9.928;2023-02-28T07:31:25;5.63;;;4.50;;
6467;SDS011;3267;48.794;9.928;2023-02-28T07:33:51;7.43;;;4.83;;
6467;SDS011;3267;48.794;9.928;2023-02-28T07:36:18;5.87;;;5.27;;
6467;SDS011;3267;48.794;9.928;2023-02-28T07:38:45;11.67;;;5.10;;
6467;SDS011;3267;48.794;9.928;2023-02-28T07:41:13;7.50;;;4.50;;
6467;SDS011;3267;48.794;9.928;2023-02-28T07:43:39;10.87;;;4.97;;
6467;SDS011;3267;48.794;9.928;2023-02-28T07:46:09;5.87;;;4.73;;
6467;SDS011;3267;48.794;9.928;2023-02-28T07:48:36;6.03;;;4.87;;
6467;SDS011;3267;48.794;9.928;2023-02-28T07:51:03;6.47;;;5.23;;
6467;SDS011;3267;48.794;9.928;2023-02-28T07:53:29;6.13;;;4.83;;
6467;SDS011;3267;48.794;9.928;2023-02-28T07:55:56;9.17;;;5.53;;
6467;SDS011;3267;48.794;9.928;2023-02-28T07:58:23;7.30;;;5.03;;
6467;SDS011;3267;48.794;9.928;2023-02-28T08:00:49;6.73;;;5.40;;
6467;SDS011;3267;48.794;9.928;2023-02-28T08:03:16;5.17;;;4.60;;
6467;SDS011;3267;48.794;9.928;2023-02-28T08:05:42;6.47;;;5.23;;
6467;SDS011;3267;48.794;9.928;2023-02-28T08:08:08;6.53;;;5.20;;
6467;SDS011;3267;48.794;9.928;2023-02-28T08:10:38;7.60;;;5.43;;
6467;SDS011;3267;48.794;9.928;2023-02-28T08:13:04;7.07;;;4.70;;
6467;SDS011;3267;48.794;9.928;2023-02-28T08:15:30;6.40;;;5.30;;
6467;SDS011;3267;48.794;9.928;2023-02-28T08:17:56;8.53;;;5.50;;
6467;SDS011;3267;48.794;9.928;2023-02-28T08:20:23;7.63;;;5.43;;
6467;SDS011;3267;48.794;9.928;2023-02-28T08:22:49;8.13;;;4.60;;
6467;SDS011;3267;48.794;9.928;2023-02-28T08:25:15;5.87;;;4.67;;
6467;SDS011;3267;48.794;9.928;2023-02-28T08:27:42;7.07;;;4.17;;
6467;SDS011;3267;48.794;9.928;2023-02-28T08:30:10;6.77;;;5.63;;
6467;SDS011;3267;48.794;9.928;2023-02-28T08:32:36;10.70;;;5.23;;
6467;SDS011;3267;48.794;9.928;2023-02-28T08:35:02;5.10;;;4.60;;
6467;SDS011;3267;48.794;9.928;2023-02-28T08:37:29;6.53;;;5.53;;
6467;SDS011;3267;48.794;9.928;2023-02-28T08:39:55;8.40;;;6.30;;
6467;SDS011;3267;48.794;9.928;2023-02-28T08:42:21;9.60;;;6.20;;
6467;SDS011;3267;48.794;9.928;2023-02-28T08:44:47;6.00;;;5.40;;
6467;SDS011;3267;48.794;9.928;2023-02-28T08:47:13;6.07;;;4.47;;
6467;SDS011;3267;48.794;9.928;2023-02-28T08:49:42;5.53;;;4.60;;
6467;SDS011;3267;48.794;9.928;2023-02-28T08:52:08;8.40;;;5.97;;
6467;SDS011;3267;48.794;9.928;2023-02-28T08:54:34;5.97;;;4.23;;
6467;SDS011;3267;48.794;9.928;2023-02-28T08:57:02;3.60;;;2.97;;
6467;SDS011;3267;48.794;9.928;2023-02-28T08:59:28;5.60;;;4.70;;
6467;SDS011;3267;48.794;9.928;2023-02-28T09:01:54;8.23;;;5.20;;
6467;SDS011;3267;48.794;9.928;2023-02-28T09:04:21;7.03;;;5.53;;
6467;SDS011;3267;48.794;9.928;2023-02-28T09:06:50;5.17;;;4.17;;
6467;SDS011;3267;48.794;9.928;2023-02-28T09:09:16;8.53;;;5.80;;
6467;SDS011;3267;48.794;9.928;2023-02-28T09:11:42;10.83;;;7.17;;
6467;SDS011;3267;48.794;9.928;2023-02-28T09:14:11;10.93;;;7.53;;
6467;SDS011;3267;48.794;9.928;2023-02-28T09:16:37;7.27;;;6.00;;
6467;SDS011;3267;48.794;9.928;2023-02-28T09:19:03;5.50;;;4.90;;
6467;SDS011;3267;48.794;9.928;2023-02-28T09:21:29;8.47;;;5.10;;
6467;SDS011;3267;48.794;9.928;2023-02-28T09:23:55;6.60;;;5.13;;
6467;SDS011;3267;48.794;9.928;2023-02-28T09:26:23;8.40;;;5.07;;
6467;SDS011;3267;48.794;9.928;2023-02-28T09:28:50;3.40;;;3.10;;
6467;SDS011;3267;48.794;9.928;2023-02-28T09:31:17;3.40;;;3.10;;
6467;SDS011;3267;48.794;9.928;2023-02-28T09:33:46;6.27;;;4.73;;
6467;SDS011;3267;48.794;9.928;2023-02-28T09:36:12;6.40;;;4.03;;
6467;SDS011;3267;48.794;9.928;2023-02-28T09:38:38;6.93;;;4.60;;
6467;SDS011;3267;48.794;9.928;2023-02-28T09:41:10;8.13;;;5.07;;
6467;SDS011;3267;48.794;9.928;2023-02-28T09:43:38;6.53;;;4.30;;
6467;SDS011;3267;48.794;9.928;2023-02-28T09:46:26;6.63;;;4.93;;
6467;SDS011;3267;48.794;9.928;2023-02-28T09:48:53;7.10;;;5.20;;
6467;SDS011;3267;48.794;9.928;2023-02-28T09:53:50;8.37;;;4.97;;
6467;SDS011;3267;48.794;9.928;2023-02-28T09:59:15;6.63;;;5.10;;
6467;SDS011;3267;48.794;9.928;2023-02-28T10:10:26;7.87;;;5.07;;
6467;SDS011;3267;48.794;9.928;2023-02-28T10:12:59;7.87;;;5.60;;
6467;SDS011;3267;48.794;9.928;2023-02-28T10:15:27;9.37;;;4.90;;
6467;SDS011;3267;48.794;9.928;2023-02-28T10:17:58;7.07;;;4.87;;
6467;SDS011;3267;48.794;9.928;2023-02-28T10:20:30;6.03;;;5.00;;
6467;SDS011;3267;48.794;9.928;2023-02-28T10:23:02;5.80;;;5.10;;
6467;SDS011;3267;48.794;9.928;2023-02-28T10:25:39;6.00;;;5.40;;
6467;SDS011;3267;48.794;9.928;2023-02-28T10:28:12;5.97;;;5.37;;
6467;SDS011;3267;48.794;9.928;2023-02-28T10:30:41;6.60;;;5.90;;
6467;SDS011;3267;48.794;9.928;2023-02-28T10:33:12;20.57;;;14.20;;
6467;SDS011;3267;48.794;9.928;2023-02-28T10:35:45;13.27;;;10.07;;
6467;SDS011;3267;48.794;9.928;2023-02-28T10:38:16;17.47;;;11.37;;
6467;SDS011;3267;48.794;9.928;2023-02-28T10:40:42;6.97;;;5.53;;
6467;SDS011;3267;48.794;9.928;2023-02-28T10:45:52;6.53;;;5.43;;
6467;SDS011;3267;48.794;9.928;2023-02-28T10:53:16;9.00;;;6.57;;
6467;SDS011;3267;48.794;9.928;2023-02-28T11:01:21;6.33;;;5.73;;
6467;SDS011;3267;48.794;9.928;2023-02-28T11:03:47;8.17;;;5.53;;
6467;SDS011;3267;48.794;9.928;2023-02-28T11:06:21;6.13;;;5.10;;
6467;SDS011;3267;48.794;9.928;2023-02-28T11:08:55;8.20;;;5.87;;
6467;SDS011;3267;48.794;9.928;2023-02-28T11:11:22;8.67;;;6.27;;
6467;SDS011;3267;48.794;9.928;2023-02-28T11:13:56;6.30;;;5.00;;
6467;SDS011;3267;48.794;9.928;2023-02-28T11:16:32;6.33;;;5.70;;
6467;SDS011;3267;48.794;9.928;2023-02-28T11:19:00;6.63;;;5.70;;
6467;SDS011;3267;48.794;9.928;2023-02-28T11:21:27;7.17;;;4.70;;
6467;SDS011;3267;48.794;9.928;2023-02-28T11:24:41;7.27;;;5.30;;
6467;SDS011;3267;48.794;9.928;2023-02-28T11:26:48;5.53;;;4.83;;
6467;SDS011;3267;48.794;9.928;2023-02-28T11:29:21;6.67;;;4.37;;
6467;SDS011;3267;48.794;9.928;2023-02-28T11:34:45;6.63;;;5.07;;
6467;SDS011;3267;48.794;9.928;2023-02-28T11:37:13;5.47;;;4.90;;
6467;SDS011;3267;48.794;9.928;2023-02-28T11:39:41;5.77;;;4.60;;
6467;SDS011;3267;48.794;9.928;2023-02-28T11:42:21;7.03;;;5.10;;
6467;SDS011;3267;48.794;9.928;2023-02-28T11:47:42;6.07;;;5.40;;
6467;SDS011;3267;48.794;9.928;2023-02-28T11:50:30;14.10;;;5.17;;
6467;SDS011;3267;48.794;9.928;2023-02-28T11:53:14;5.90;;;5.20;;
6467;SDS011;3267;48.794;9.928;2023-02-28T11:55:49;7.07;;;4.97;;
6467;SDS011;3267;48.794;9.928;2023-02-28T12:03:58;4.93;;;4.43;;
6467;SDS011;3267;48.794;9.928;2023-02-28T12:06:33;7.93;;;4.50;;
6467;SDS011;3267;48.794;9.928;2023-02-28T12:12:11;6.97;;;5.63;;
6467;SDS011;3267;48.794;9.928;2023-02-28T12:20:59;6.72;;;4.63;;
6467;SDS011;3267;48.794;9.928;2023-02-28T12:29:12;4.80;;;4.40;;
6467;SDS011;3267;48.794;9.928;2023-02-28T12:34:35;5.15;;;4.65;;
6467;SDS011;3267;48.794;9.928;2023-02-28T12:37:07;8.70;;;5.47;;
6467;SDS011;3267;48.794;9.928;2023-02-28T12:39:49;5.30;;;4.80;;
6467;SDS011;3267;48.794;9.928;2023-02-28T12:42:24;15.00;;;9.98;;
6467;SDS011;3267;48.794;9.928;2023-02-28T12:44:58;12.30;;;7.88;;
6467;SDS011;3267;48.794;9.928;2023-02-28T12:47:26;11.18;;;8.27;;
6467;SDS011;3267;48.794;9.928;2023-02-28T12:49:56;8.30;;;5.10;;
6467;SDS011;3267;48.794;9.928;2023-02-28T12:58:13;6.85;;;5.55;;
6467;SDS011;3267;48.794;9.928;2023-02-28T13:01:01;5.57;;;5.07;;
6467;SDS011;3267;48.794;9.928;2023-02-28T13:09:37;5.72;;;5.10;;
6467;SDS011;3267;48.794;9.928;2023-02-28T13:12:12;9.02;;;5.80;;
6467;SDS011;3267;48.794;9.928;2023-02-28T13:14:39;6.18;;;4.93;;
6467;SDS011;3267;48.794;9.928;2023-02-28T13:19:44;7.72;;;4.75;;
6467;SDS011;3267;48.794;9.928;2023-02-28T13:22:18;5.57;;;4.47;;
6467;SDS011;3267;48.794;9.928;2023-02-28T13:24:55;4.28;;;3.60;;
6467;SDS011;3267;48.794;9.928;2023-02-28T13:27:35;6.70;;;5.10;;
6467;SDS011;3267;48.794;9.928;2023-02-28T13:38:36;6.38;;;4.47;;
6467;SDS011;3267;48.794;9.928;2023-02-28T13:47:23;5.40;;;4.90;;
6467;SDS011;3267;48.794;9.928;2023-02-28T13:51:51;5.28;;;4.82;;
6467;SDS011;3267;48.794;9.928;2023-02-28T13:54:29;5.32;;;4.82;;
6467;SDS011;3267;48.794;9.928;2023-02-28T14:05:24;6.40;;;5.78;;
6467;SDS011;3267;48.794;9.928;2023-02-28T14:07:52;6.57;;;5.15;;
6467;SDS011;3267;48.794;9.928;2023-02-28T14:10:25;8.23;;;5.75;;
6467;SDS011;3267;48.794;9.928;2023-02-28T14:13:01;7.28;;;5.43;;
6467;SDS011;3267;48.794;9.928;2023-02-28T14:15:40;6.07;;;5.30;;
6467;SDS011;3267;48.794;9.928;2023-02-28T14:26:38;8.15;;;6.63;;
6467;SDS011;3267;48.794;9.928;2023-02-28T14:37:37;7.85;;;6.80;;
6467;SDS011;3267;48.794;9.928;2023-02-28T14:40:17;6.28;;;5.47;;
6467;SDS011;3267;48.794;9.928;2023-02-28T14:42:48;7.32;;;5.57;;
6467;SDS011;3267;48.794;9.928;2023-02-28T14:45:21;8.30;;;5.40;;
6467;SDS011;3267;48.794;9.928;2023-02-28T14:47:47;8.65;;;5.13;;
6467;SDS011;3267;48.794;9.928;2023-02-28T14:50:22;6.05;;;5.45;;
6467;SDS011;3267;48.794;9.928;2023-02-28T14:53:00;5.40;;;4.80;;
6467;SDS011;3267;48.794;9.928;2023-02-28T14:55:34;5.47;;;4.95;;
6467;SDS011;3267;48.794;9.928;2023-02-28T14:58:02;6.10;;;5.50;;
6467;SDS011;3267;48.794;9.928;2023-02-28T15:00:35;6.88;;;5.45;;
6467;SDS011;3267;48.794;9.928;2023-02-28T15:03:17;7.22;;;5.40;;
6467;SDS011;3267;48.794;9.928;2023-02-28T15:05:50;14.25;;;5.32;;
6467;SDS011;3267;48.794;9.928;2023-02-28T15:08:27;7.03;;;5.18;;
6467;SDS011;3267;48.794;9.928;2023-02-28T15:10:58;7.22;;;6.05;;
6467;SDS011;3267;48.794;9.928;2023-02-28T15:13:43;7.82;;;6.10;;
6467;SDS011;3267;48.794;9.928;2023-02-28T15:16:25;7.53;;;6.07;;
6467;SDS011;3267;48.794;9.928;2023-02-28T15:18:57;7.15;;;5.55;;
6467;SDS011;3267;48.794;9.928;2023-02-28T15:21:31;6.80;;;5.65;;
6467;SDS011;3267;48.794;9.928;2023-02-28T15:26:38;6.38;;;5.70;;
6467;SDS011;3267;48.794;9.928;2023-02-28T15:29:07;6.25;;;5.65;;
6467;SDS011;3267;48.794;9.928;2023-02-28T15:31:45;6.50;;;5.25;;
6467;SDS011;3267;48.794;9.928;2023-02-28T15:34:21;7.15;;;5.35;;
6467;SDS011;3267;48.794;9.928;2023-02-28T15:36:59;7.68;;;5.43;;
6467;SDS011;3267;48.794;9.928;2023-02-28T15:39:26;9.90;;;6.30;;
6467;SDS011;3267;48.794;9.928;2023-02-28T15:42:12;6.72;;;5.97;;
6467;SDS011;3267;48.794;9.928;2023-02-28T15:44:48;7.93;;;6.20;;
6467;SDS011;3267;48.794;9.928;2023-02-28T15:47:16;6.40;;;5.80;;
6467;SDS011;3267;48.794;9.928;2023-02-28T15:49:47;6.72;;;5.25;;
6467;SDS011;3267;48.794;9.928;2023-02-28T15:52:39;6.97;;;5.22;;
6467;SDS011;3267;48.794;9.928;2023-02-28T15:55:08;9.52;;;5.72;;
6467;SDS011;3267;48.794;9.928;2023-02-28T15:57:38;6.57;;;5.95;;
6467;SDS011;3267;48.794;9.928;2023-02-28T16:00:06;7.40;;;5.82;;
6467;SDS011;3267;48.794;9.928;2023-02-28T16:02:38;6.43;;;5.70;;
6467;SDS011;3267;48.794;9.928;2023-02-28T16:07:36;7.45;;;5.68;;
6467;SDS011;3267;48.794;9.928;2023-02-28T16:10:07;13.25;;;6.18;;
6467;SDS011;3267;48.794;9.928;2023-02-28T16:12:34;7.65;;;5.97;;
6467;SDS011;3267;48.794;9.928;2023-02-28T16:15:08;9.50;;;5.65;;
6467;SDS011;3267;48.794;9.928;2023-02-28T16:17:42;10.52;;;6.10;;
6467;SDS011;3267;48.794;9.928;2023-02-28T16:20:18;5.78;;;5.15;;
6467;SDS011;3267;48.794;9.928;2023-02-28T16:22:49;8.60;;;5.72;;
6467;SDS011;3267;48.794;9.928;2023-02-28T16:25:20;7.47;;;5.93;;
6467;SDS011;3267;48.794;9.928;2023-02-28T16:27:59;8.07;;;6.55;;
6467;SDS011;3267;48.794;9.928;2023-02-28T16:30:26;8.02;;;6.60;;
6467;SDS011;3267;48.794;9.928;2023-02-28T16:32:54;9.80;;;7.15;;
6467;SDS011;3267;48.794;9.928;2023-02-28T16:35:20;16.23;;;12.10;;
6467;SDS011;3267;48.794;9.928;2023-02-28T16:37:47;18.20;;;12.25;;
6467;SDS011;3267;48.794;9.928;2023-02-28T16:40:20;7.05;;;5.80;;
6467;SDS011;3267;48.794;9.928;2023-02-28T16:42:51;7.07;;;5.75;;
6467;SDS011;3267;48.794;9.928;2023-02-28T16:45:21;7.55;;;5.80;;
6467;SDS011;3267;48.794;9.928;2023-02-28T16:47:49;6.30;;;5.70;;
6467;SDS011;3267;48.794;9.928;2023-02-28T16:50:19;6.30;;;5.70;;
6467;SDS011;3267;48.794;9.928;2023-02-28T16:52:47;7.25;;;6.15;;
6467;SDS011;3267;48.794;9.928;2023-02-28T16:55:14;6.35;;;5.75;;
6467;SDS011;3267;48.794;9.928;2023-02-28T16:57:41;10.32;;;6.28;;
6467;SDS011;3267;48.794;9.928;2023-02-28T17:00:08;6.75;;;6.05;;
6467;SDS011;3267;48.794;9.928;2023-02-28T17:02:37;8.93;;;6.28;;
6467;SDS011;3267;48.794;9.928;2023-02-28T17:05:03;8.70;;;6.53;;
6467;SDS011;3267;48.794;9.928;2023-02-28T17:07:29;8.23;;;6.20;;
6467;SDS011;3267;48.794;9.928;2023-02-28T17:09:55;11.38;;;9.20;;
6467;SDS011;3267;48.794;9.928;2023-02-28T17:12:21;13.10;;;6.40;;
6467;SDS011;3267;48.794;9.928;2023-02-28T17:14:46;8.27;;;6.43;;
6467;SDS011;3267;48.794;9.928;2023-02-28T17:17:15;10.80;;;6.60;;
6467;SDS011;3267;48.794;9.928;2023-02-28T17:19:43;7.85;;;6.28;;
6467;SDS011;3267;48.794;9.928;2023-02-28T17:22:09;10.90;;;6.88;;
6467;SDS011;3267;48.794;9.928;2023-02-28T17:24:35;9.48;;;6.70;;
6467;SDS011;3267;48.794;9.928;2023-02-28T17:27:01;7.53;;;6.28;;
6467;SDS011;3267;48.794;9.928;2023-02-28T17:29:28;9.68;;;6.55;;
6467;SDS011;3267;48.794;9.928;2023-02-28T17:31:54;7.65;;;6.05;;
6467;SDS011;3267;48.794;9.928;2023-02-28T17:34:20;8.15;;;6.15;;
6467;SDS011;3267;48.794;9.928;2023-02-28T17:36:47;7.05;;;5.93;;
6467;SDS011;3267;48.794;9.928;2023-02-28T17:39:15;9.35;;;6.18;;
6467;SDS011;3267;48.794;9.928;2023-02-28T17:41:52;6.55;;;5.78;;
6467;SDS011;3267;48.794;9.928;2023-02-28T17:44:20;7.22;;;5.75;;
6467;SDS011;3267;48.794;9.928;2023-02-28T17:46:46;9.77;;;5.95;;
6467;SDS011;3267;48.794;9.928;2023-02-28T17:49:12;10.23;;;5.95;;
6467;SDS011;3267;48.794;9.928;2023-02-28T17:51:38;12.27;;;6.03;;
6467;SDS011;3267;48.794;9.928;2023-02-28T17:54:03;9.27;;;6.38;;
6467;SDS011;3267;48.794;9.928;2023-02-28T17:56:30;7.65;;;5.57;;
6467;SDS011;3267;48.794;9.928;2023-02-28T17:58:56;14.70;;;6.20;;
6467;SDS011;3267;48.794;9.928;2023-02-28T18:01:23;8.65;;;6.65;;
6467;SDS011;3267;48.794;9.928;2023-02-28T18:03:51;8.75;;;6.72;;
6467;SDS011;3267;48.794;9.928;2023-02-28T18:09:15;8.48;;;6.28;;
6467;SDS011;3267;48.794;9.928;2023-02-28T18:11:49;7.47;;;6.35;;
6467;SDS011;3267;48.794;9.928;2023-02-28T18:14:15;8.45;;;7.05;;
6467;SDS011;3267;48.794;9.928;2023-02-28T18:16:42;8.07;;;6.60;;
6467;SDS011;3267;48.794;9.928;2023-02-28T18:19:09;8.33;;;6.63;;
6467;SDS011;3267;48.794;9.928;2023-02-28T18:21:39;7.95;;;6.43;;
6467;SDS011;3267;48.794;9.928;2023-02-28T18:24:06;7.68;;;6.53;;
6467;SDS011;3267;48.794;9.928;2023-02-28T18:26:33;8.48;;;6.82;;
6467;SDS011;3267;48.794;9.928;2023-02-28T18:28:59;8.13;;;6.40;;
6467;SDS011;3267;48.794;9.928;2023-02-28T18:31:24;10.07;;;7.00;;
6467;SDS011;3267;48.794;9.928;2023-02-28T18:33:50;7.75;;;6.65;;
6467;SDS011;3267;48.794;9.928;2023-02-28T18:36:17;7.55;;;6.65;;
6467;SDS011;3267;48.794;9.928;2023-02-28T18:38:45;7.68;;;6.88;;
6467;SDS011;3267;48.794;9.928;2023-02-28T18:41:11;10.00;;;6.93;;
6467;SDS011;3267;48.794;9.928;2023-02-28T18:43:37;21.90;;;15.70;;
6467;SDS011;3267;48.794;9.928;2023-02-28T18:46:10;8.97;;;6.97;;
6467;SDS011;3267;48.794;9.928;2023-02-28T18:48:37;9.38;;;6.55;;
6467;SDS011;3267;48.794;9.928;2023-02-28T18:51:04;8.03;;;6.73;;
6467;SDS011;3267;48.794;9.928;2023-02-28T18:53:32;8.38;;;6.32;;
6467;SDS011;3267;48.794;9.928;2023-02-28T18:55:59;10.07;;;6.80;;
6467;SDS011;3267;48.794;9.928;2023-02-28T18:58:25;9.17;;;7.03;;
6467;SDS011;3267;48.794;9.928;2023-02-28T19:00:58;7.83;;;6.23;;
6467;SDS011;3267;48.794;9.928;2023-02-28T19:03:24;7.03;;;6.33;;
6467;SDS011;3267;48.794;9.928;2023-02-28T19:05:56;12.63;;;9.17;;
6467;SDS011;3267;48.794;9.928;2023-02-28T19:08:23;9.20;;;7.67;;
6467;SDS011;3267;48.794;9.928;2023-02-28T19:10:49;15.33;;;8.83;;
6467;SDS011;3267;48.794;9.928;2023-02-28T19:13:15;11.07;;;8.97;;
6467;SDS011;3267;48.794;9.928;2023-02-28T19:15:41;16.40;;;8.07;;
6467;SDS011;3267;48.794;9.928;2023-02-28T19:18:07;10.03;;;7.10;;
6467;SDS011;3267;48.794;9.928;2023-02-28T19:20:33;8.17;;;6.50;;
6467;SDS011;3267;48.794;9.928;2023-02-28T19:22:59;7.93;;;6.43;;
6467;SDS011;3267;48.794;9.928;2023-02-28T19:25:25;10.33;;;6.70;;
6467;SDS011;3267;48.794;9.928;2023-02-28T19:27:54;8.63;;;6.70;;
6467;SDS011;3267;48.794;9.928;2023-02-28T19:30:20;9.60;;;7.73;;
6467;SDS011;3267;48.794;9.928;2023-02-28T19:32:47;12.50;;;6.30;;
6467;SDS011;3267;48.794;9.928;2023-02-28T19:35:13;8.03;;;6.33;;
6467;SDS011;3267;48.794;9.928;2023-02-28T19:37:39;7.57;;;6.20;;
6467;SDS011;3267;48.794;9.928;2023-02-28T19:40:06;14.93;;;10.37;;
6467;SDS011;3267;48.794;9.928;2023-02-28T19:42:33;10.07;;;8.07;;
6467;SDS011;3267;48.794;9.928;2023-02-28T19:44:59;14.17;;;10.83;;
6467;SDS011;3267;48.794;9.928;2023-02-28T19:47:26;14.97;;;10.77;;
6467;SDS011;3267;48.794;9.928;2023-02-28T19:49:54;9.03;;;7.23;;
6467;SDS011;3267;48.794;9.928;2023-02-28T19:52:20;9.60;;;7.60;;
6467;SDS011;3267;48.794;9.928;2023-02-28T19:54:47;9.50;;;6.50;;
6467;SDS011;3267;48.794;9.928;2023-02-28T19:57:13;8.17;;;6.80;;
6467;SDS011;3267;48.794;9.928;2023-02-28T19:59:38;7.97;;;6.83;;
6467;SDS011;3267;48.794;9.928;2023-02-28T20:02:05;8.53;;;7.40;;
6467;SDS011;3267;48.794;9.928;2023-02-28T20:04:37;7.70;;;6.47;;
6467;SDS011;3267;48.794;9.928;2023-02-28T20:07:03;9.50;;;6.97;;
6467;SDS011;3267;48.794;9.928;2023-02-28T20:09:29;8.80;;;7.07;;
6467;SDS011;3267;48.794;9.928;2023-02-28T20:11:56;9.20;;;7.17;;
6467;SDS011;3267;48.794;9.928;2023-02-28T20:14:23;8.77;;;7.10;;
6467;SDS011;3267;48.794;9.928;2023-02-28T20:16:49;13.57;;;7.40;;
6467;SDS011;3267;48.794;9.928;2023-02-28T20:19:15;12.30;;;7.97;;
6467;SDS011;3267;48.794;9.928;2023-02-28T20:21:42;11.77;;;7.43;;
6467;SDS011;3267;48.794;9.928;2023-02-28T20:24:09;8.33;;;6.87;;
6467;SDS011;3267;48.794;9.928;2023-02-28T20:26:39;9.27;;;6.97;;
6467;SDS011;3267;48.794;9.928;2023-02-28T20:29:05;9.87;;;6.90;;
6467;SDS011;3267;48.794;9.928;2023-02-28T20:31:32;10.83;;;7.43;;
6467;SDS011;3267;48.794;9.928;2023-02-28T20:33:58;10.80;;;7.50;;
6467;SDS011;3267;48.794;9.928;2023-02-28T20:36:24;13.93;;;8.20;;
6467;SDS011;3267;48.794;9.928;2023-02-28T20:38:50;11.73;;;7.53;;
6467;SDS011;3267;48.794;9.928;2023-02-28T20:41:17;13.23;;;8.50;;
6467;SDS011;3267;48.794;9.928;2023-02-28T20:43:43;14.27;;;11.80;;
6467;SDS011;3267;48.794;9.928;2023-02-28T20:46:10;11.87;;;10.10;;
6467;SDS011;3267;48.794;9.928;2023-02-28T20:48:36;13.00;;;9.67;;
6467;SDS011;3267;48.794;9.928;2023-02-28T20:51:03;13.73;;;9.77;;
6467;SDS011;3267;48.794;9.928;2023-02-28T20:53:32;23.33;;;15.27;;
6467;SDS011;3267;48.794;9.928;2023-02-28T20:56:01;32.77;;;17.30;;
6467;SDS011;3267;48.794;9.928;2023-02-28T20:58:28;19.17;;;12.40;;
6467;SDS011;3267;48.794;9.928;2023-02-28T21:03:27;19.50;;;11.43;;
6467;SDS011;3267;48.794;9.928;2023-02-28T21:05:59;15.57;;;10.83;;
6467;SDS011;3267;48.794;9.928;2023-02-28T21:08:25;15.30;;;9.30;;
6467;SDS011;3267;48.794;9.928;2023-02-28T21:10:51;13.03;;;9.03;;
6467;SDS011;3267;48.794;9.928;2023-02-28T21:13:17;12.73;;;8.93;;
6467;SDS011;3267;48.794;9.928;2023-02-28T21:15:43;12.33;;;8.73;;
6467;SDS011;3267;48.794;9.928;2023-02-28T21:18:09;12.13;;;9.20;;
6467;SDS011;3267;48.794;9.928;2023-02-28T21:20:35;10.67;;;8.00;;
6467;SDS011;3267;48.794;9.928;2023-02-28T21:23:01;8.97;;;7.40;;
6467;SDS011;3267;48.794;9.928;2023-02-28T21:25:27;9.57;;;7.70;;
6467;SDS011;3267;48.794;9.928;2023-02-28T21:27:53;8.40;;;6.77;;
6467;SDS011;3267;48.794;9.928;2023-02-28T21:30:20;13.67;;;9.27;;
6467;SDS011;3267;48.794;9.928;2023-02-28T21:32:46;20.60;;;12.67;;
6467;SDS011;3267;48.794;9.928;2023-02-28T21:35:12;25.53;;;15.67;;
6467;SDS011;3267;48.794;9.928;2023-02-28T21:37:39;13.47;;;9.33;;
6467;SDS011;3267;48.794;9.928;2023-02-28T21:40:05;13.53;;;8.37;;
6467;SDS011;3267;48.794;9.928;2023-02-28T21:42:32;15.53;;;9.37;;
6467;SDS011;3267;48.794;9.928;2023-02-28T21:44:58;10.40;;;7.30;;
6467;SDS011;3267;48.794;9.928;2023-02-28T21:47:27;10.10;;;7.10;;
6467;SDS011;3267;48.794;9.928;2023-02-28T21:49:54;8.80;;;6.90;;
6467;SDS011;3267;48.794;9.928;2023-02-28T21:52:20;8.67;;;6.87;;
6467;SDS011;3267;48.794;9.928;2023-02-28T21:54:46;8.27;;;6.73;;
6467;SDS011;3267;48.794;9.928;2023-02-28T21:57:13;8.93;;;6.83;;
6467;SDS011;3267;48.794;9.928;2023-02-28T21:59:40;8.13;;;7.00;;
6467;SDS011;3267;48.794;9.928;2023-02-28T22:02:07;8.67;;;6.80;;
6467;SDS011;3267;48.794;9.928;2023-02-28T22:04:34;9.57;;;6.90;;
6467;SDS011;3267;48.794;9.928;2023-02-28T22:07:01;8.97;;;7.07;;
6467;SDS011;3267;48.794;9.928;2023-02-28T22:09:27;11.67;;;7.17;;
6467;SDS011;3267;48.794;9.928;2023-02-28T22:11:53;11.53;;;7.80;;
6467;SDS011;3267;48.794;9.928;2023-02-28T22:14:19;11.80;;;8.63;;
6467;SDS011;3267;48.794;9.928;2023-02-28T22:16:45;11.50;;;7.90;;
6467;SDS011;3267;48.794;9.928;2023-02-28T22:19:11;10.70;;;7.57;;
6467;SDS011;3267;48.794;9.928;2023-02-28T22:21:38;12.03;;;7.53;;
6467;SDS011;3267;48.794;9.928;2023-02-28T22:24:06;10.13;;;7.60;;
6467;SDS011;3267;48.794;9.928;2023-02-28T22:26:32;13.47;;;8.30;;